sensor_id;sensor_type;location;lat;lon;timestamp;pressure;altitude;pressure_sealevel;temperature;humidity
79150;BME280;68563;45.644;13.782;2023-08-20T00:01:56;101196.78;;;37.40;29.45
79150;BME280;68563;45.644;13.782;2023-08-20T00:04:25;101196.63;;;37.18;29.17
79150;BME280;68563;45.644;13.782;2023-08-20T00:06:51;101207.19;;;35.78;31.20
79150;BME280;68563;45.644;13.782;2023-08-20T00:09:17;101192.50;;;35.98;31.18
79150;BME280;68563;45.644;13.782;2023-08-20T00:11:42;101190.72;;;37.38;28.84
79150;BME280;68563;45.644;13.782;2023-08-20T00:14:08;101200.19;;;37.33;29.16
79150;BME280;68563;45.644;13.782;2023-08-20T00:16:33;101204.16;;;35.82;31.17
79150;BME280;68563;45.644;13.782;2023-08-20T00:18:59;101199.25;;;35.93;31.23
79150;BME280;68563;45.644;13.782;2023-08-20T00:21:25;101198.66;;;37.16;29.19
79150;BME280;68563;45.644;13.782;2023-08-20T00:23:53;101208.84;;;37.14;29.24
79150;BME280;68563;45.644;13.782;2023-08-20T00:26:19;101204.59;;;36.02;30.71
79150;BME280;68563;45.644;13.782;2023-08-20T00:28:44;101209.56;;;35.82;31.50
79150;BME280;68563;45.644;13.782;2023-08-20T00:31:10;101195.22;;;36.84;29.79
79150;BME280;68563;45.644;13.782;2023-08-20T00:33:35;101211.97;;;37.56;28.81
79150;BME280;68563;45.644;13.782;2023-08-20T00:36:00;101202.22;;;36.07;31.14
79150;BME280;68563;45.644;13.782;2023-08-20T00:38:26;101205.94;;;35.41;32.34
79150;BME280;68563;45.644;13.782;2023-08-20T00:40:51;101204.13;;;36.61;30.90
79150;BME280;68563;45.644;13.782;2023-08-20T00:43:16;101203.72;;;37.19;29.60
79150;BME280;68563;45.644;13.782;2023-08-20T00:45:42;101203.00;;;35.76;31.74
79150;BME280;68563;45.644;13.782;2023-08-20T00:48:08;101205.94;;;35.25;32.96
79150;BME280;68563;45.644;13.782;2023-08-20T00:50:34;101203.06;;;36.70;30.52
79150;BME280;68563;45.644;13.782;2023-08-20T00:53:00;101209.88;;;37.28;29.56
79150;BME280;68563;45.644;13.782;2023-08-20T00:55:26;101208.50;;;35.83;31.72
79150;BME280;68563;45.644;13.782;2023-08-20T00:57:51;101221.41;;;35.06;33.14
79150;BME280;68563;45.644;13.782;2023-08-20T01:00:17;101210.06;;;35.77;32.07
79150;BME280;68563;45.644;13.782;2023-08-20T01:02:43;101209.50;;;36.69;30.60
79150;BME280;68563;45.644;13.782;2023-08-20T01:05:10;101206.06;;;35.65;32.31
79150;BME280;68563;45.644;13.782;2023-08-20T01:10:28;101200.94;;;35.94;31.80
79150;BME280;68563;45.644;13.782;2023-08-20T01:12:55;101196.28;;;36.75;30.88
79150;BME280;68563;45.644;13.782;2023-08-20T01:15:21;101199.19;;;35.54;32.22
79150;BME280;68563;45.644;13.782;2023-08-20T01:17:48;101201.03;;;34.87;34.08
79150;BME280;68563;45.644;13.782;2023-08-20T01:20:14;101200.44;;;36.31;31.42
79150;BME280;68563;45.644;13.782;2023-08-20T01:28:27;101194.66;;;35.05;33.59
79150;BME280;68563;45.644;13.782;2023-08-20T01:30:58;101186.22;;;36.05;31.88
79150;BME280;68563;45.644;13.782;2023-08-20T01:33:24;101202.84;;;36.57;30.70
79150;BME280;68563;45.644;13.782;2023-08-20T01:35:54;101191.97;;;35.21;33.11
79150;BME280;68563;45.644;13.782;2023-08-20T01:38:20;101201.72;;;34.97;33.67
79150;BME280;68563;45.644;13.782;2023-08-20T01:40:45;101196.63;;;35.69;32.17
79150;BME280;68563;45.644;13.782;2023-08-20T01:43:10;101185.53;;;36.12;31.42
79150;BME280;68563;45.644;13.782;2023-08-20T01:45:36;101196.16;;;34.74;33.59
79150;BME280;68563;45.644;13.782;2023-08-20T01:48:02;101193.44;;;34.49;34.15
79150;BME280;68563;45.644;13.782;2023-08-20T01:50:29;101209.78;;;36.12;31.12
79150;BME280;68563;45.644;13.782;2023-08-20T01:52:54;101201.78;;;36.90;30.00
79150;BME280;68563;45.644;13.782;2023-08-20T01:55:19;101193.47;;;35.49;32.01
79150;BME280;68563;45.644;13.782;2023-08-20T01:57:45;101200.53;;;34.83;33.32
79150;BME280;68563;45.644;13.782;2023-08-20T02:00:11;101204.50;;;35.78;31.76
79150;BME280;68563;45.644;13.782;2023-08-20T02:02:36;101190.94;;;37.13;29.87
79150;BME280;68563;45.644;13.782;2023-08-20T02:05:02;101197.25;;;35.79;31.43
79150;BME280;68563;45.644;13.782;2023-08-20T02:07:28;101197.84;;;34.92;32.98
79150;BME280;68563;45.644;13.782;2023-08-20T02:09:53;101193.16;;;36.63;30.54
79150;BME280;68563;45.644;13.782;2023-08-20T02:12:19;101202.91;;;38.23;28.09
79150;BME280;68563;45.644;13.782;2023-08-20T02:14:44;101201.09;;;36.64;30.05
79150;BME280;68563;45.644;13.782;2023-08-20T02:17:10;101204.22;;;35.49;32.21
79150;BME280;68563;45.644;13.782;2023-08-20T02:19:37;101200.34;;;36.16;31.17
79150;BME280;68563;45.644;13.782;2023-08-20T02:22:03;101208.84;;;37.14;29.89
79150;BME280;68563;45.644;13.782;2023-08-20T02:24:28;101210.16;;;36.08;31.53
79150;BME280;68563;45.644;13.782;2023-08-20T02:26:54;101210.81;;;34.96;34.04
79150;BME280;68563;45.644;13.782;2023-08-20T02:29:19;101190.44;;;35.27;33.13
79150;BME280;68563;45.644;13.782;2023-08-20T02:31:45;101194.25;;;36.53;31.43
79150;BME280;68563;45.644;13.782;2023-08-20T02:34:10;101201.63;;;35.80;32.50
79150;BME280;68563;45.644;13.782;2023-08-20T02:36:35;101200.84;;;34.56;34.83
79150;BME280;68563;45.644;13.782;2023-08-20T02:39:01;101198.38;;;35.20;33.69
79150;BME280;68563;45.644;13.782;2023-08-20T02:41:28;101200.72;;;36.44;31.58
79150;BME280;68563;45.644;13.782;2023-08-20T02:43:54;101199.44;;;35.84;32.13
79150;BME280;68563;45.644;13.782;2023-08-20T02:46:19;101206.56;;;34.69;34.07
79150;BME280;68563;45.644;13.782;2023-08-20T02:48:45;101197.03;;;35.08;33.76
79150;BME280;68563;45.644;13.782;2023-08-20T02:51:10;101200.03;;;36.42;31.23
79150;BME280;68563;45.644;13.782;2023-08-20T02:53:35;101198.03;;;36.36;31.31
79150;BME280;68563;45.644;13.782;2023-08-20T02:56:01;101210.81;;;34.96;33.42
79150;BME280;68563;45.644;13.782;2023-08-20T02:58:26;101205.59;;;35.20;33.33
79150;BME280;68563;45.644;13.782;2023-08-20T03:00:51;101194.72;;;36.25;31.51
79150;BME280;68563;45.644;13.782;2023-08-20T03:03:18;101189.78;;;36.06;31.79
79150;BME280;68563;45.644;13.782;2023-08-20T03:05:43;101206.97;;;34.91;33.65
79150;BME280;68563;45.644;13.782;2023-08-20T03:08:09;101207.75;;;34.83;33.87
79150;BME280;68563;45.644;13.782;2023-08-20T03:10:35;101203.81;;;35.93;32.09
79150;BME280;68563;45.644;13.782;2023-08-20T03:13:01;101207.75;;;36.14;31.62
79150;BME280;68563;45.644;13.782;2023-08-20T03:15:28;101211.28;;;34.83;33.84
79150;BME280;68563;45.644;13.782;2023-08-20T03:17:53;101200.47;;;34.50;34.75
79150;BME280;68563;45.644;13.782;2023-08-20T03:20:19;101196.41;;;35.78;32.47
79150;BME280;68563;45.644;13.782;2023-08-20T03:22:44;101201.53;;;36.13;31.74
79150;BME280;68563;45.644;13.782;2023-08-20T03:25:09;101194.81;;;34.87;33.73
79150;BME280;68563;45.644;13.782;2023-08-20T03:27:35;101203.69;;;34.71;34.48
79150;BME280;68563;45.644;13.782;2023-08-20T03:30:01;101211.00;;;35.44;32.82
79150;BME280;68563;45.644;13.782;2023-08-20T03:32:26;101210.66;;;36.12;32.02
79150;BME280;68563;45.644;13.782;2023-08-20T03:34:51;101194.00;;;35.03;33.45
79150;BME280;68563;45.644;13.782;2023-08-20T03:37:19;101201.69;;;34.13;35.00
79150;BME280;68563;45.644;13.782;2023-08-20T03:39:44;101195.66;;;34.95;34.16
79150;BME280;68563;45.644;13.782;2023-08-20T03:42:09;101195.94;;;35.67;32.80
79150;BME280;68563;45.644;13.782;2023-08-20T03:44:35;101204.69;;;34.61;34.41
79150;BME280;68563;45.644;13.782;2023-08-20T03:47:00;101207.63;;;34.25;35.41
79150;BME280;68563;45.644;13.782;2023-08-20T03:49:26;101197.53;;;34.95;34.29
79150;BME280;68563;45.644;13.782;2023-08-20T03:51:51;101198.38;;;36.01;32.12
79150;BME280;68563;45.644;13.782;2023-08-20T03:54:16;101195.00;;;35.18;33.16
79150;BME280;68563;45.644;13.782;2023-08-20T03:56:42;101208.75;;;34.23;35.09
79150;BME280;68563;45.644;13.782;2023-08-20T03:59:07;101213.81;;;34.85;34.14
79150;BME280;68563;45.644;13.782;2023-08-20T04:01:34;101201.38;;;36.06;32.26
79150;BME280;68563;45.644;13.782;2023-08-20T04:04:01;101202.88;;;35.20;33.26
79150;BME280;68563;45.644;13.782;2023-08-20T04:06:26;101212.75;;;34.10;35.25
79150;BME280;68563;45.644;13.782;2023-08-20T04:08:51;101205.09;;;34.99;33.68
79150;BME280;68563;45.644;13.782;2023-08-20T04:11:17;101207.72;;;36.22;31.52
79150;BME280;68563;45.644;13.782;2023-08-20T04:13:42;101222.59;;;35.37;32.80
79150;BME280;68563;45.644;13.782;2023-08-20T04:16:09;101234.59;;;34.15;35.38
79150;BME280;68563;45.644;13.782;2023-08-20T04:18:35;101208.03;;;34.55;34.61
79150;BME280;68563;45.644;13.782;2023-08-20T04:21:00;101220.78;;;36.02;31.87
79150;BME280;68563;45.644;13.782;2023-08-20T04:23:26;101212.66;;;35.29;32.93
79150;BME280;68563;45.644;13.782;2023-08-20T04:25:51;101237.84;;;34.27;34.72
79150;BME280;68563;45.644;13.782;2023-08-20T04:28:17;101206.84;;;34.41;34.67
79150;BME280;68563;45.644;13.782;2023-08-20T04:30:42;101192.75;;;35.63;32.60
79150;BME280;68563;45.644;13.782;2023-08-20T04:33:08;101194.66;;;35.29;32.67
79150;BME280;68563;45.644;13.782;2023-08-20T04:35:34;101203.06;;;34.26;34.65
79150;BME280;68563;45.644;13.782;2023-08-20T04:37:59;101187.22;;;34.06;35.28
79150;BME280;68563;45.644;13.782;2023-08-20T04:40:25;101188.28;;;35.22;33.42
79150;BME280;68563;45.644;13.782;2023-08-20T04:42:51;101199.53;;;35.01;33.58
79150;BME280;68563;45.644;13.782;2023-08-20T04:45:16;101213.44;;;34.12;34.75
79150;BME280;68563;45.644;13.782;2023-08-20T04:47:46;101209.66;;;33.97;35.52
79150;BME280;68563;45.644;13.782;2023-08-20T04:50:11;101220.75;;;34.96;33.99
79150;BME280;68563;45.644;13.782;2023-08-20T04:52:38;101209.13;;;35.12;33.40
79150;BME280;68563;45.644;13.782;2023-08-20T04:55:04;101204.41;;;34.22;34.90
79150;BME280;68563;45.644;13.782;2023-08-20T04:57:30;101221.41;;;34.30;35.21
79150;BME280;68563;45.644;13.782;2023-08-20T04:59:55;101214.50;;;35.45;33.24
79150;BME280;68563;45.644;13.782;2023-08-20T05:02:21;101216.28;;;35.86;32.28
79150;BME280;68563;45.644;13.782;2023-08-20T05:04:46;101216.31;;;34.70;34.38
79150;BME280;68563;45.644;13.782;2023-08-20T05:07:11;101225.56;;;34.59;35.02
79150;BME280;68563;45.644;13.782;2023-08-20T05:09:37;101220.66;;;35.87;32.68
79150;BME280;68563;45.644;13.782;2023-08-20T05:12:03;101233.59;;;36.71;31.11
79150;BME280;68563;45.644;13.782;2023-08-20T05:14:29;101228.16;;;35.43;32.91
79150;BME280;68563;45.644;13.782;2023-08-20T05:16:54;101219.06;;;35.11;33.76
79150;BME280;68563;45.644;13.782;2023-08-20T05:19:20;101218.59;;;35.97;32.14
79150;BME280;68563;45.644;13.782;2023-08-20T05:21:45;101219.44;;;36.37;31.58
79150;BME280;68563;45.644;13.782;2023-08-20T05:24:11;101252.22;;;35.28;33.10
79150;BME280;68563;45.644;13.782;2023-08-20T05:26:36;101234.13;;;34.71;34.33
79150;BME280;68563;45.644;13.782;2023-08-20T05:29:01;101248.03;;;36.15;32.33
79150;BME280;68563;45.644;13.782;2023-08-20T05:31:27;101222.66;;;36.96;30.74
79150;BME280;68563;45.644;13.782;2023-08-20T05:33:53;101230.13;;;35.66;32.74
79150;BME280;68563;45.644;13.782;2023-08-20T05:36:18;101233.88;;;35.07;33.83
79150;BME280;68563;45.644;13.782;2023-08-20T05:38:44;101243.72;;;35.81;32.72
79150;BME280;68563;45.644;13.782;2023-08-20T05:41:09;101243.13;;;36.59;31.49
79150;BME280;68563;45.644;13.782;2023-08-20T05:43:35;101261.72;;;35.97;32.26
79150;BME280;68563;45.644;13.782;2023-08-20T05:46:04;101247.69;;;35.12;33.98
79150;BME280;68563;45.644;13.782;2023-08-20T05:48:30;101242.00;;;36.05;32.40
79150;BME280;68563;45.644;13.782;2023-08-20T05:50:55;101238.91;;;37.79;29.68
79150;BME280;68563;45.644;13.782;2023-08-20T05:53:24;101243.34;;;36.49;31.52
79150;BME280;68563;45.644;13.782;2023-08-20T05:55:49;101256.88;;;34.85;34.77
79150;BME280;68563;45.644;13.782;2023-08-20T05:58:15;101266.75;;;36.80;31.47
79150;BME280;68563;45.644;13.782;2023-08-20T06:00:40;101252.88;;;38.27;28.83
79150;BME280;68563;45.644;13.782;2023-08-20T06:03:06;101266.28;;;37.46;30.18
79150;BME280;68563;45.644;13.782;2023-08-20T06:05:34;101263.47;;;35.15;34.03
79150;BME280;68563;45.644;13.782;2023-08-20T06:08:00;101275.91;;;37.25;31.02
79150;BME280;68563;45.644;13.782;2023-08-20T06:10:25;101276.50;;;38.49;28.89
79150;BME280;68563;45.644;13.782;2023-08-20T06:12:52;101272.44;;;37.40;30.11
79150;BME280;68563;45.644;13.782;2023-08-20T06:15:17;101284.88;;;35.42;33.58
79150;BME280;68563;45.644;13.782;2023-08-20T06:17:42;101277.00;;;36.84;31.85
79150;BME280;68563;45.644;13.782;2023-08-20T06:20:08;101274.53;;;38.27;29.21
79150;BME280;68563;45.644;13.782;2023-08-20T06:22:35;101287.47;;;37.34;30.60
79150;BME280;68563;45.644;13.782;2023-08-20T06:25:01;101279.94;;;35.95;32.97
79150;BME280;68563;45.644;13.782;2023-08-20T06:27:26;101284.28;;;36.84;31.59
79150;BME280;68563;45.644;13.782;2023-08-20T06:29:51;101281.44;;;38.82;28.37
79150;BME280;68563;45.644;13.782;2023-08-20T06:32:17;101281.44;;;38.30;29.00
79150;BME280;68563;45.644;13.782;2023-08-20T06:34:42;101283.84;;;36.40;32.21
79150;BME280;68563;45.644;13.782;2023-08-20T06:37:07;101272.53;;;36.77;31.99
79150;BME280;68563;45.644;13.782;2023-08-20T06:39:33;101283.31;;;39.24;27.88
79150;BME280;68563;45.644;13.782;2023-08-20T06:41:58;101284.97;;;39.47;27.55
79150;BME280;68563;45.644;13.782;2023-08-20T06:44:24;101273.38;;;37.47;30.34
79150;BME280;68563;45.644;13.782;2023-08-20T06:46:49;101286.63;;;37.33;31.06
79150;BME280;68563;45.644;13.782;2023-08-20T06:49:14;101285.50;;;38.92;28.45
79150;BME280;68563;45.644;13.782;2023-08-20T06:51:40;101278.16;;;39.08;28.07
79150;BME280;68563;45.644;13.782;2023-08-20T06:54:05;101273.72;;;36.43;32.20
79150;BME280;68563;45.644;13.782;2023-08-20T06:56:32;101282.91;;;36.56;32.04
79150;BME280;68563;45.644;13.782;2023-08-20T06:58:57;101286.75;;;38.38;29.36
79150;BME280;68563;45.644;13.782;2023-08-20T07:01:22;101285.78;;;39.48;27.85
79150;BME280;68563;45.644;13.782;2023-08-20T07:03:48;101286.09;;;37.15;31.14
79150;BME280;68563;45.644;13.782;2023-08-20T07:06:13;101286.72;;;36.39;32.50
79150;BME280;68563;45.644;13.782;2023-08-20T07:08:43;101290.94;;;38.56;29.11
79150;BME280;68563;45.644;13.782;2023-08-20T07:11:09;101288.81;;;39.60;27.54
79150;BME280;68563;45.644;13.782;2023-08-20T07:13:34;101294.81;;;36.31;32.18
79150;BME280;68563;45.644;13.782;2023-08-20T07:16:00;101285.16;;;35.97;32.92
79150;BME280;68563;45.644;13.782;2023-08-20T07:18:25;101282.84;;;37.96;29.77
79150;BME280;68563;45.644;13.782;2023-08-20T07:20:51;101282.28;;;38.45;28.81
79150;BME280;68563;45.644;13.782;2023-08-20T07:23:17;101304.91;;;36.77;31.15
79150;BME280;68563;45.644;13.782;2023-08-20T07:25:42;101296.94;;;36.04;32.80
79150;BME280;68563;45.644;13.782;2023-08-20T07:28:10;101290.31;;;37.41;30.37
79150;BME280;68563;45.644;13.782;2023-08-20T07:30:35;101303.38;;;38.35;28.96
79150;BME280;68563;45.644;13.782;2023-08-20T07:33:01;101315.31;;;36.88;31.31
79150;BME280;68563;45.644;13.782;2023-08-20T07:35:27;101288.34;;;35.84;32.82
79150;BME280;68563;45.644;13.782;2023-08-20T07:37:53;101301.16;;;37.71;29.99
79150;BME280;68563;45.644;13.782;2023-08-20T07:40:19;101303.03;;;39.40;27.58
79150;BME280;68563;45.644;13.782;2023-08-20T07:42:44;101292.63;;;37.82;29.28
79150;BME280;68563;45.644;13.782;2023-08-20T07:45:10;101312.16;;;36.45;32.09
79150;BME280;68563;45.644;13.782;2023-08-20T07:47:36;101309.78;;;38.19;29.22
79150;BME280;68563;45.644;13.782;2023-08-20T07:50:03;101302.66;;;39.21;27.46
79150;BME280;68563;45.644;13.782;2023-08-20T07:52:30;101320.09;;;38.39;28.94
79150;BME280;68563;45.644;13.782;2023-08-20T07:54:55;101307.34;;;36.63;31.51
79150;BME280;68563;45.644;13.782;2023-08-20T07:57:21;101307.97;;;37.81;29.91
79150;BME280;68563;45.644;13.782;2023-08-20T07:59:48;101311.19;;;39.68;26.89
79150;BME280;68563;45.644;13.782;2023-08-20T08:02:14;101313.13;;;38.81;27.99
79150;BME280;68563;45.644;13.782;2023-08-20T08:04:42;101315.50;;;37.33;30.35
79150;BME280;68563;45.644;13.782;2023-08-20T08:07:08;101309.59;;;37.76;30.03
79150;BME280;68563;45.644;13.782;2023-08-20T08:09:34;101308.97;;;38.85;28.02
79150;BME280;68563;45.644;13.782;2023-08-20T08:12:00;101295.88;;;38.89;27.98
79150;BME280;68563;45.644;13.782;2023-08-20T08:14:25;101305.28;;;37.66;29.93
79150;BME280;68563;45.644;13.782;2023-08-20T08:16:51;101317.91;;;37.89;29.42
79150;BME280;68563;45.644;13.782;2023-08-20T08:19:17;101303.00;;;38.75;28.38
79150;BME280;68563;45.644;13.782;2023-08-20T08:21:44;101310.91;;;39.13;27.74
79150;BME280;68563;45.644;13.782;2023-08-20T08:24:14;101306.00;;;37.60;29.65
79150;BME280;68563;45.644;13.782;2023-08-20T08:26:40;101304.91;;;37.70;29.95
79150;BME280;68563;45.644;13.782;2023-08-20T08:29:07;101308.44;;;39.18;27.45
79150;BME280;68563;45.644;13.782;2023-08-20T08:31:33;101307.56;;;39.11;27.24
79150;BME280;68563;45.644;13.782;2023-08-20T08:33:59;101295.75;;;37.56;29.59
79150;BME280;68563;45.644;13.782;2023-08-20T08:36:25;101305.47;;;36.95;30.40
79150;BME280;68563;45.644;13.782;2023-08-20T08:38:53;101290.97;;;38.11;28.85
79150;BME280;68563;45.644;13.782;2023-08-20T08:41:21;101297.78;;;38.73;27.71
79150;BME280;68563;45.644;13.782;2023-08-20T08:43:49;101281.25;;;37.33;29.37
79150;BME280;68563;45.644;13.782;2023-08-20T08:46:15;101287.16;;;37.14;29.98
79150;BME280;68563;45.644;13.782;2023-08-20T08:48:44;101295.63;;;38.02;28.82
79150;BME280;68563;45.644;13.782;2023-08-20T08:51:10;101289.56;;;38.45;27.94
79150;BME280;68563;45.644;13.782;2023-08-20T08:53:36;101271.81;;;37.06;30.07
79150;BME280;68563;45.644;13.782;2023-08-20T08:56:02;101286.25;;;36.98;30.22
79150;BME280;68563;45.644;13.782;2023-08-20T08:58:33;101270.91;;;38.72;27.31
79150;BME280;68563;45.644;13.782;2023-08-20T09:00:59;101284.38;;;39.02;26.70
79150;BME280;68563;45.644;13.782;2023-08-20T09:03:24;101265.59;;;37.82;28.29
79150;BME280;68563;45.644;13.782;2023-08-20T09:05:54;101262.19;;;37.50;29.22
79150;BME280;68563;45.644;13.782;2023-08-20T09:08:21;101272.16;;;38.54;27.26
79150;BME280;68563;45.644;13.782;2023-08-20T09:10:50;101271.72;;;39.09;26.49
79150;BME280;68563;45.644;13.782;2023-08-20T09:13:16;101266.81;;;37.94;27.95
79150;BME280;68563;45.644;13.782;2023-08-20T09:15:42;101269.56;;;37.56;28.41
79150;BME280;68563;45.644;13.782;2023-08-20T09:18:09;101295.25;;;38.20;27.45
79150;BME280;68563;45.644;13.782;2023-08-20T09:20:38;101262.50;;;38.82;26.76
79150;BME280;68563;45.644;13.782;2023-08-20T09:23:13;101264.84;;;37.73;27.98
79150;BME280;68563;45.644;13.782;2023-08-20T09:25:39;101270.44;;;37.33;28.15
79150;BME280;68563;45.644;13.782;2023-08-20T09:28:04;101283.72;;;37.96;27.27
79150;BME280;68563;45.644;13.782;2023-08-20T09:30:30;101298.31;;;38.47;27.03
79150;BME280;68563;45.644;13.782;2023-08-20T09:33:11;101264.41;;;37.46;28.34
79150;BME280;68563;45.644;13.782;2023-08-20T09:35:36;101265.00;;;36.95;28.59
79150;BME280;68563;45.644;13.782;2023-08-20T09:38:05;101263.41;;;38.52;26.31
79150;BME280;68563;45.644;13.782;2023-08-20T09:40:31;101286.53;;;39.35;24.80
79150;BME280;68563;45.644;13.782;2023-08-20T09:42:57;101278.09;;;38.13;26.40
79150;BME280;68563;45.644;13.782;2023-08-20T09:45:28;101261.63;;;37.55;27.41
79150;BME280;68563;45.644;13.782;2023-08-20T09:47:55;101268.38;;;38.34;26.18
79150;BME280;68563;45.644;13.782;2023-08-20T09:50:25;101263.78;;;39.57;24.76
79150;BME280;68563;45.644;13.782;2023-08-20T09:53:07;101268.28;;;38.12;25.30
79150;BME280;68563;45.644;13.782;2023-08-20T09:55:39;101265.56;;;37.52;26.69
79150;BME280;68563;45.644;13.782;2023-08-20T09:58:06;101252.66;;;37.92;25.69
79150;BME280;68563;45.644;13.782;2023-08-20T10:00:33;101268.59;;;38.17;25.44
79150;BME280;68563;45.644;13.782;2023-08-20T10:03:02;101281.41;;;37.09;27.00
79150;BME280;68563;45.644;13.782;2023-08-20T10:05:27;101247.50;;;36.20;28.86
79150;BME280;68563;45.644;13.782;2023-08-20T10:07:54;101249.88;;;37.47;26.89
79150;BME280;68563;45.644;13.782;2023-08-20T10:10:20;101258.03;;;38.74;24.86
79150;BME280;68563;45.644;13.782;2023-08-20T10:12:46;101255.91;;;38.03;26.16
79150;BME280;68563;45.644;13.782;2023-08-20T10:15:14;101248.69;;;36.88;27.93
79150;BME280;68563;45.644;13.782;2023-08-20T10:17:42;101253.66;;;37.61;26.57
79150;BME280;68563;45.644;13.782;2023-08-20T10:20:08;101256.13;;;38.53;25.41
79150;BME280;68563;45.644;13.782;2023-08-20T10:22:36;101258.38;;;37.44;26.71
79150;BME280;68563;45.644;13.782;2023-08-20T10:25:10;101258.56;;;36.41;28.11
79150;BME280;68563;45.644;13.782;2023-08-20T10:27:37;101253.53;;;37.40;26.75
79150;BME280;68563;45.644;13.782;2023-08-20T10:30:11;101258.56;;;39.06;24.26
79150;BME280;68563;45.644;13.782;2023-08-20T10:32:51;101248.16;;;37.99;24.96
79150;BME280;68563;45.644;13.782;2023-08-20T10:35:20;101253.22;;;36.88;27.28
79150;BME280;68563;45.644;13.782;2023-08-20T10:43:33;101261.19;;;37.66;26.24
79150;BME280;68563;45.644;13.782;2023-08-20T10:46:14;101256.69;;;37.43;27.00
79150;BME280;68563;45.644;13.782;2023-08-20T10:48:41;101263.91;;;38.41;25.27
79150;BME280;68563;45.644;13.782;2023-08-20T10:51:16;101247.50;;;38.42;25.09
79150;BME280;68563;45.644;13.782;2023-08-20T10:53:48;101291.63;;;37.45;26.68
79150;BME280;68563;45.644;13.782;2023-08-20T10:56:15;101255.47;;;37.46;26.86
79150;BME280;68563;45.644;13.782;2023-08-20T10:58:42;101269.59;;;39.26;24.49
79150;BME280;68563;45.644;13.782;2023-08-20T11:01:15;101270.38;;;39.48;24.12
79150;BME280;68563;45.644;13.782;2023-08-20T11:03:45;101259.59;;;38.46;25.36
79150;BME280;68563;45.644;13.782;2023-08-20T11:06:11;101266.91;;;37.86;26.01
79150;BME280;68563;45.644;13.782;2023-08-20T11:08:37;101266.69;;;39.06;24.71
79150;BME280;68563;45.644;13.782;2023-08-20T11:11:03;101249.78;;;39.04;24.65
79150;BME280;68563;45.644;13.782;2023-08-20T11:13:31;101260.47;;;38.02;26.17
79150;BME280;68563;45.644;13.782;2023-08-20T11:15:57;101251.50;;;37.72;26.39
79150;BME280;68563;45.644;13.782;2023-08-20T11:18:24;101244.63;;;39.09;24.92
79150;BME280;68563;45.644;13.782;2023-08-20T11:20:50;101235.19;;;39.55;24.27
79150;BME280;68563;45.644;13.782;2023-08-20T11:23:16;101233.81;;;38.51;25.78
79150;BME280;68563;45.644;13.782;2023-08-20T11:25:42;101241.59;;;38.24;26.26
79150;BME280;68563;45.644;13.782;2023-08-20T11:28:08;101234.41;;;39.11;25.37
79150;BME280;68563;45.644;13.782;2023-08-20T11:30:34;101239.28;;;39.72;24.28
79150;BME280;68563;45.644;13.782;2023-08-20T11:33:00;101219.91;;;38.54;26.03
79150;BME280;68563;45.644;13.782;2023-08-20T11:35:25;101231.41;;;37.89;26.92
79150;BME280;68563;45.644;13.782;2023-08-20T11:37:52;101242.31;;;38.84;25.07
79150;BME280;68563;45.644;13.782;2023-08-20T11:40:20;101233.88;;;39.79;24.28
79150;BME280;68563;45.644;13.782;2023-08-20T11:42:45;101234.59;;;38.66;25.52
79150;BME280;68563;45.644;13.782;2023-08-20T11:45:11;101249.94;;;37.92;26.81
79150;BME280;68563;45.644;13.782;2023-08-20T11:47:42;101234.41;;;38.83;25.59
79150;BME280;68563;45.644;13.782;2023-08-20T11:50:09;101224.19;;;39.63;24.51
79150;BME280;68563;45.644;13.782;2023-08-20T11:52:38;101246.00;;;38.61;25.62
79150;BME280;68563;45.644;13.782;2023-08-20T11:55:07;101244.63;;;37.84;26.83
79150;BME280;68563;45.644;13.782;2023-08-20T11:57:33;101229.31;;;38.58;25.91
79150;BME280;68563;45.644;13.782;2023-08-20T12:00:05;101241.66;;;39.54;24.37
79150;BME280;68563;45.644;13.782;2023-08-20T12:02:40;101229.56;;;38.41;26.09
79150;BME280;68563;45.644;13.782;2023-08-20T12:05:06;101257.09;;;37.70;26.98
79150;BME280;68563;45.644;13.782;2023-08-20T12:07:32;101252.25;;;38.40;25.81
79150;BME280;68563;45.644;13.782;2023-08-20T12:09:57;101239.00;;;39.10;25.36
79150;BME280;68563;45.644;13.782;2023-08-20T12:12:23;101231.75;;;38.16;26.62
79150;BME280;68563;45.644;13.782;2023-08-20T12:14:48;101231.28;;;37.29;27.56
79150;BME280;68563;45.644;13.782;2023-08-20T12:17:18;101229.34;;;38.06;26.57
79150;BME280;68563;45.644;13.782;2023-08-20T12:19:44;101218.31;;;39.53;24.62
79150;BME280;68563;45.644;13.782;2023-08-20T12:22:10;101225.66;;;38.44;26.08
79150;BME280;68563;45.644;13.782;2023-08-20T12:24:35;101221.50;;;37.51;27.64
79150;BME280;68563;45.644;13.782;2023-08-20T12:27:00;101236.97;;;38.54;26.13
79150;BME280;68563;45.644;13.782;2023-08-20T12:29:26;101244.78;;;39.86;24.16
79150;BME280;68563;45.644;13.782;2023-08-20T12:31:51;101225.03;;;38.85;25.60
79150;BME280;68563;45.644;13.782;2023-08-20T12:34:17;101250.22;;;38.12;26.47
79150;BME280;68563;45.644;13.782;2023-08-20T12:36:42;101217.94;;;39.06;25.17
79150;BME280;68563;45.644;13.782;2023-08-20T12:39:08;101212.53;;;39.63;24.55
79150;BME280;68563;45.644;13.782;2023-08-20T12:41:33;101223.22;;;38.92;25.31
79150;BME280;68563;45.644;13.782;2023-08-20T12:44:01;101221.22;;;37.91;27.00
79150;BME280;68563;45.644;13.782;2023-08-20T12:46:27;101214.75;;;38.22;26.67
79150;BME280;68563;45.644;13.782;2023-08-20T12:48:52;101206.34;;;40.24;24.11
79150;BME280;68563;45.644;13.782;2023-08-20T12:51:18;101224.97;;;39.57;24.77